Terminal Aerodrome Forecast
Issued by NWS Twin Cities, MN

Home | Current Version | Previous Version | Graphics & Text | Print | Product List | Glossary On
Versions: 1 2 3 4 5 6 7 8 9 10 11 12 13 14 15 16 17 18 19 20 21 22 23 24 25 26
000
FTUS43 KMPX 270520
TAFMSP
TAF
KMSP 270520Z 2706/2812 23003KT P6SM SKC
     FM271400 21010KT P6SM SCT250
     FM271800 18014G22KT P6SM BKN250
     FM280100 15010KT P6SM SCT120 BKN200
     FM280700 15010KT P6SM BKN070 PROB30 2808/2812 4SM TSRA
      OVC050CB=

USA.gov is the U.S. government's official web portal to all federal, state and local government web resources and services.